This is the latest recevied weather packets stored in our database for station/object N7TUG-8. If no packets are shown the sender has not sent any weather packets the latest 10 day(s).
| Time | Temp. | Humidity | Pressure | Rain* | Wind** | Luminosity | Snow |
|---|---|---|---|---|---|---|---|
| 1777619141 | 14.44° C | 79% | 1015.7 hPa | 0 mm | 0.45 m/s, 246° | - | - |
| 1777618884 | 14.44° C | 79% | 1015.7 hPa | 0 mm | 0.45 m/s, 235° | - | - |
| 1777618812 | 14.44° C | 79% | 1015.7 hPa | 0 mm | 0.45 m/s, 235° | - | - |
| 1777618296 | 14.44° C | 79% | 1015.8 hPa | 0 mm | 0 m/s | - | - |
| 1777618007 | 14.44° C | 79% | 1015.7 hPa | 0 mm | 0.45 m/s, 256° | - | - |
| 1777617431 | 14.44° C | 79% | 1015.7 hPa | 0 mm | 0.89 m/s, 290° | - | - |
| 1777616586 | 15° C | 78% | 1015.7 hPa | 0 mm | 0.45 m/s, 236° | - | - |
| 1777615741 | 15° C | 78% | 1015.7 hPa | 0 mm | 0.45 m/s, 221° | - | - |
| 1777615412 | 15° C | 78% | 1015.6 hPa | 0 mm | 0.89 m/s, 226° | - | - |
| 1777614951 | 15° C | 77% | 1015.7 hPa | 0 mm | 0.89 m/s, 225° | - | - |
| 1777614573 | 15.56° C | 76% | 1015.7 hPa | 0 mm | 0.89 m/s, 219° | - | - |
| 1777614091 | 15.56° C | 75% | 1015.7 hPa | 0 mm | 0.89 m/s, 198° | - | - |
| 1777613812 | 16.11° C | 74% | 1015.7 hPa | 0 mm | 0.89 m/s, 202° | - | - |
| 1777613311 | 16.11° C | 73% | 1015.7 hPa | 0 mm | 0.89 m/s, 226° | - | - |
| 1777612351 | 16.67° C | 71% | 1015.7 hPa | 0 mm | 0.89 m/s, 258° | - | - |
| 1777611571 | 16.67° C | 72% | 1015.7 hPa | 0 mm | 0.89 m/s, 235° | - | - |
| 1777610621 | 17.22° C | 70% | 1015.6 hPa | 0 mm | 1.34 m/s, 252° | - | - |
| 1777610462 | 17.22° C | 70% | 1015.6 hPa | 0 mm | 1.34 m/s, 252° | - | - |
| 1777609766 | 18.33° C | 67% | 1015.4 hPa | 0 mm | 2.24 m/s, 290° | - | - |
| 1777609597 | 18.33° C | 67% | 1015.4 hPa | 0 mm | 2.24 m/s, 290° | - | - |
| 1777608826 | 18.33° C | 67% | 1015.3 hPa | 0 mm | 1.34 m/s, 274° | - | - |
| 1777608717 | 18.33° C | 67% | 1015.3 hPa | 0 mm | 1.34 m/s, 274° | - | - |
| 1777607951 | 18.33° C | 67% | 1015.2 hPa | 0 mm | 0.89 m/s, 267° | - | - |
| 1777607166 | 18.89° C | 66% | 1015.1 hPa | 0 mm | 1.79 m/s, 286° | - | - |
| 1777606256 | 18.33° C | 66% | 1015.1 hPa | 0 mm | 1.34 m/s, 290° | - | - |
* Rain latest hour (hover to see other rain measurements)
** Current wind speed in m/s (hover to see current wind gust speed)